Time;durP1;ratioP1;P1;durP2;ratioP2;P2;SDS_P1;SDS_P2;PMS_P1;PMS_P2;Temp;Humidity;BMP_temperature;BMP_pressure;BME280_temperature;BME280_humidity;BME280_pressure;Samples;Min_cycle;Max_cycle;Signal;HPM_P1;HPM_P2
2021/11/26 00:02:01;;;;;;;;;8.00;7.00;;;;;21.20;37.92;101107.53;4978845;28;45388;-67
2021/11/26 00:04:26;;;;;;;;;8.00;6.00;;;;;21.24;37.62;101111.47;4980815;28;45387;-67
2021/11/26 00:06:52;;;;;;;;;9.00;7.75;;;;;21.25;37.51;101111.31;4980003;28;45387;-67
2021/11/26 00:09:17;;;;;;;;;8.00;8.00;;;;;21.24;37.75;101101.72;4978879;28;47239;-67
2021/11/26 00:11:42;;;;;;;;;7.75;7.75;;;;;21.29;38.01;101109.16;4986830;28;45536;-67
2021/11/26 00:17:04;;;;;;;;;9.00;9.00;;;;;21.33;37.76;101094.59;4981580;28;46413;-67
2021/11/26 00:19:30;;;;;;;;;9.50;9.50;;;;;21.34;37.65;101095.44;4960416;28;46759;-66
2021/11/26 00:21:57;;;;;;;;;9.50;9.00;;;;;21.34;37.76;101084.84;4963062;28;45423;-66
2021/11/26 00:24:24;;;;;;;;;9.25;7.50;;;;;21.26;37.71;101073.25;4965995;28;45258;-66
2021/11/26 00:26:50;;;;;;;;;8.00;8.00;;;;;21.25;37.64;101066.34;4967606;28;45460;-66
2021/11/26 00:29:16;;;;;;;;;7.00;6.75;;;;;21.33;37.32;101070.78;4968900;28;46308;-67
2021/11/26 00:31:42;;;;;;;;;8.00;7.25;;;;;21.33;37.49;101068.16;4957904;28;45513;-66
2021/11/26 00:34:08;;;;;;;;;9.75;7.50;;;;;21.34;37.59;101061.03;4972331;28;45381;-66
2021/11/26 00:36:34;;;;;;;;;7.75;7.25;;;;;21.33;37.26;101046.13;4975181;28;45466;-66
2021/11/26 00:39:00;;;;;;;;;8.50;8.50;;;;;21.28;37.42;101036.91;4977436;28;45533;-66
2021/11/26 00:41:26;;;;;;;;;9.00;9.00;;;;;21.27;37.34;101027.28;4974372;28;44899;-66
2021/11/26 00:43:51;;;;;;;;;7.25;7.00;;;;;21.29;37.46;101024.47;4972775;28;45591;-67
2021/11/26 00:46:18;;;;;;;;;9.25;8.75;;;;;21.25;37.19;101012.59;4974318;28;45648;-66
2021/11/26 00:48:44;;;;;;;;;9.25;8.25;;;;;21.34;36.98;101021.34;4971899;28;46000;-67
2021/11/26 00:51:10;;;;;;;;;10.00;8.00;;;;;21.33;37.19;101023.16;4977513;28;45253;-68
2021/11/26 00:53:36;;;;;;;;;10.25;7.50;;;;;21.30;36.91;101020.84;4976955;28;45428;-66
2021/11/26 00:56:01;;;;;;;;;7.75;7.75;;;;;21.29;36.81;101019.19;4988647;28;45367;-67
2021/11/26 00:58:27;;;;;;;;;11.25;10.00;;;;;21.34;36.89;101016.03;4987198;28;47278;-67
2021/11/26 01:00:52;;;;;;;;;11.50;8.00;;;;;21.34;36.79;101016.03;4989312;28;45327;-69
2021/11/26 01:03:18;;;;;;;;;11.50;8.00;;;;;21.26;37.44;101003.66;4985581;28;45343;-68
2021/11/26 01:05:43;;;;;;;;;8.75;7.50;;;;;21.33;36.86;101012.56;4984164;28;45403;-67
2021/11/26 01:08:09;;;;;;;;;7.50;7.50;;;;;21.33;36.86;101007.28;4981468;28;45333;-67
2021/11/26 01:10:34;;;;;;;;;11.00;9.00;;;;;21.32;36.83;101005.59;4979348;28;45516;-66
2021/11/26 01:13:00;;;;;;;;;9.00;9.00;;;;;21.15;36.97;100966.00;4977986;28;45376;-67
2021/11/26 01:15:28;;;;;;;;;8.00;8.00;;;;;21.33;36.76;100993.19;4981127;28;45494;-68
2021/11/26 01:17:54;;;;;;;;;10.75;8.75;;;;;21.32;37.10;100992.38;4982155;28;47029;-67
2021/11/26 01:20:23;;;;;;;;;7.00;7.00;;;;;21.31;36.64;100987.25;4982827;28;45298;-67
2021/11/26 01:22:50;;;;;;;;;9.50;8.00;;;;;21.31;36.64;100984.63;4983294;28;45437;-67
2021/11/26 01:25:16;;;;;;;;;7.50;7.00;;;;;21.29;36.72;100982.13;4985068;28;45780;-67
2021/11/26 01:27:42;;;;;;;;;11.00;8.25;;;;;21.29;37.00;100982.13;4982459;28;46188;-66
2021/11/26 01:30:21;;;;;;;;;11.00;10.75;;;;;21.29;36.77;100985.59;4977671;28;45718;-67
2021/11/26 01:32:46;;;;;;;;;8.25;8.25;;;;;21.29;36.72;100980.31;4975163;28;45805;-67
2021/11/26 01:35:12;;;;;;;;;9.50;8.50;;;;;21.28;36.85;100977.84;4976090;28;45556;-67
2021/11/26 01:37:37;;;;;;;;;12.00;9.00;;;;;21.27;36.78;100974.38;4974587;28;47058;-67
2021/11/26 01:40:05;;;;;;;;;9.75;8.75;;;;;21.27;36.59;100968.25;4975452;28;45547;-67
2021/11/26 01:42:30;;;;;;;;;8.25;8.25;;;;;21.25;36.80;100965.78;4976215;28;45413;-67
2021/11/26 01:44:56;;;;;;;;;10.50;8.00;;;;;21.26;36.63;100963.97;4973058;28;45545;-66
2021/11/26 01:47:21;;;;;;;;;11.25;8.50;;;;;21.25;36.85;100962.31;4972921;28;45490;-66
2021/11/26 01:49:46;;;;;;;;;11.00;9.50;;;;;21.23;36.83;100951.06;4972776;28;45329;-66
2021/11/26 01:52:12;;;;;;;;;8.25;8.25;;;;;21.21;36.66;100948.59;4973053;28;45407;-66
2021/11/26 01:54:37;;;;;;;;;8.25;8.25;;;;;21.16;36.51;100945.63;4973754;28;45358;-66
2021/11/26 01:57:03;;;;;;;;;6.00;5.00;;;;;21.22;36.50;100950.25;4972944;28;46334;-66
2021/11/26 01:59:31;;;;;;;;;9.25;8.00;;;;;21.22;36.53;100950.25;4972622;28;45284;-67
2021/11/26 02:01:56;;;;;;;;;8.75;7.00;;;;;21.20;36.37;100948.78;4972652;28;45499;-66
2021/11/26 02:04:21;;;;;;;;;9.50;8.00;;;;;21.21;36.36;100945.13;4970395;28;45469;-66
2021/11/26 02:06:46;;;;;;;;;10.75;9.25;;;;;21.21;36.59;100932.72;4969999;28;46218;-66
2021/11/26 02:09:12;;;;;;;;;10.25;10.00;;;;;21.21;36.53;100931.91;4968427;28;45298;-66
2021/11/26 02:11:38;;;;;;;;;8.50;8.50;;;;;21.21;36.53;100927.41;4967056;28;45442;-66
2021/11/26 02:14:04;;;;;;;;;10.00;9.75;;;;;21.20;36.44;100923.13;4967404;28;45344;-66
2021/11/26 02:16:29;;;;;;;;;7.25;6.75;;;;;21.15;36.59;100910.44;4970631;28;45860;-66
2021/11/26 02:18:55;;;;;;;;;10.50;9.50;;;;;21.17;36.37;100910.25;4970211;28;45304;-66
2021/11/26 02:21:21;;;;;;;;;8.25;8.25;;;;;21.18;36.61;100907.41;4968668;28;48947;-66
2021/11/26 02:23:48;;;;;;;;;9.00;8.50;;;;;21.18;36.40;100903.97;4968546;28;45557;-66
2021/11/26 02:26:14;;;;;;;;;7.75;7.75;;;;;21.18;36.25;100891.53;4968106;28;46074;-67
2021/11/26 02:28:41;;;;;;;;;10.25;10.00;;;;;21.19;36.66;100889.72;4970499;28;45420;-66
2021/11/26 02:31:06;;;;;;;;;6.25;6.25;;;;;21.12;36.65;100872.91;4971184;28;45593;-67
2021/11/26 02:33:32;;;;;;;;;8.00;8.00;;;;;21.16;36.37;100884.78;4969431;28;45443;-66
2021/11/26 02:35:57;;;;;;;;;10.00;10.00;;;;;21.20;36.62;100872.03;4968015;28;46208;-66
2021/11/26 02:38:25;;;;;;;;;11.50;10.75;;;;;21.20;36.76;100869.38;4968070;28;45484;-66
2021/11/26 02:40:51;;;;;;;;;10.50;9.00;;;;;21.20;36.34;100866.75;4969271;28;45672;-66
2021/11/26 02:43:16;;;;;;;;;8.75;8.25;;;;;21.18;36.58;100862.44;4971888;28;45366;-66
2021/11/26 02:45:44;;;;;;;;;7.50;7.25;;;;;21.20;36.29;100862.28;4970000;28;46141;-66
2021/11/26 02:48:12;;;;;;;;;9.00;8.25;;;;;21.20;36.56;100851.69;4971009;28;45522;-66
2021/11/26 02:50:39;;;;;;;;;7.00;7.00;;;;;21.21;36.52;100849.88;4970546;28;45406;-66
2021/11/26 02:53:05;;;;;;;;;8.75;8.75;;;;;21.20;36.40;100851.69;4972122;28;45328;-66
2021/11/26 02:55:33;;;;;;;;;4.50;4.50;;;;;21.21;36.65;100848.03;4970841;28;46468;-66
2021/11/26 02:58:00;;;;;;;;;8.25;8.25;;;;;21.11;36.50;100831.56;4973474;28;45280;-66
2021/11/26 03:00:27;;;;;;;;;9.00;7.50;;;;;21.20;36.47;100838.47;4972899;28;45398;-66
2021/11/26 03:02:53;;;;;;;;;7.50;7.50;;;;;21.20;36.55;100835.81;4971884;28;45471;-66
2021/11/26 03:05:18;;;;;;;;;10.25;8.00;;;;;21.07;36.25;100817.88;4971752;28;46233;-66
2021/11/26 03:07:45;;;;;;;;;8.00;7.75;;;;;21.21;36.59;100831.34;4971836;28;45950;-66
2021/11/26 03:10:16;;;;;;;;;9.00;8.00;;;;;21.18;36.50;100828.03;4973191;28;45324;-66
2021/11/26 03:12:43;;;;;;;;;8.50;7.75;;;;;21.06;36.22;100811.75;4974032;28;45399;-66
2021/11/26 03:15:08;;;;;;;;;10.25;8.25;;;;;21.19;36.17;100820.94;4971414;28;45395;-66
2021/11/26 03:17:34;;;;;;;;;7.50;7.50;;;;;21.18;36.10;100808.72;4971647;28;45372;-66
2021/11/26 03:19:59;;;;;;;;;8.50;7.25;;;;;21.17;36.04;100799.94;4971675;28;45272;-66
2021/11/26 03:22:24;;;;;;;;;8.75;8.75;;;;;21.18;36.17;100806.06;4972162;28;45398;-66
2021/11/26 03:24:50;;;;;;;;;9.75;8.50;;;;;21.17;36.38;100796.47;4973883;28;45253;-67
2021/11/26 03:27:15;;;;;;;;;8.50;8.50;;;;;21.18;36.16;100795.50;4971771;28;45280;-66
2021/11/26 03:29:41;;;;;;;;;9.50;8.50;;;;;21.16;36.38;100782.41;4971233;28;45738;-66
2021/11/26 03:32:06;;;;;;;;;7.50;7.00;;;;;21.17;36.45;100772.66;4971656;28;45458;-66
2021/11/26 03:34:31;;;;;;;;;8.25;8.25;;;;;21.17;36.14;100762.09;4970306;28;45228;-66
2021/11/26 03:36:57;;;;;;;;;9.00;9.00;;;;;21.17;36.37;100754.16;4973241;28;45260;-66
2021/11/26 03:39:22;;;;;;;;;7.00;7.00;;;;;21.16;36.19;100752.50;4970963;28;45310;-66
2021/11/26 03:41:48;;;;;;;;;10.00;9.00;;;;;21.16;36.19;100747.19;4971628;28;45204;-66
2021/11/26 03:44:13;;;;;;;;;9.50;8.25;;;;;21.15;36.24;100734.97;4970609;28;46298;-67
2021/11/26 03:46:38;;;;;;;;;8.00;7.25;;;;;21.14;36.21;100728.03;4970156;28;45355;-66
2021/11/26 03:49:04;;;;;;;;;7.25;7.25;;;;;21.15;36.13;100729.69;4972069;28;45306;-67
2021/11/26 03:51:29;;;;;;;;;8.75;8.25;;;;;21.14;36.34;100730.69;4972755;28;45688;-66
2021/11/26 03:53:55;;;;;;;;;10.00;8.75;;;;;21.14;36.01;100731.50;4971293;28;45402;-66
2021/11/26 03:56:20;;;;;;;;;7.25;7.00;;;;;21.14;36.34;100722.75;4971305;28;45497;-66
2021/11/26 03:58:46;;;;;;;;;10.00;10.00;;;;;21.14;36.55;100722.75;4969512;28;45454;-66
2021/11/26 04:01:11;;;;;;;;;5.75;5.75;;;;;21.14;36.33;100713.00;4971488;28;45361;-67
2021/11/26 04:03:37;;;;;;;;;8.75;8.00;;;;;21.13;36.27;100713.19;4973267;28;45898;-66
2021/11/26 04:06:02;;;;;;;;;10.00;7.00;;;;;21.13;35.98;100707.88;4971043;28;45498;-66
2021/11/26 04:08:27;;;;;;;;;7.25;7.25;;;;;21.13;36.25;100707.88;4969758;28;45366;-67
2021/11/26 04:10:53;;;;;;;;;6.50;5.25;;;;;21.13;36.33;100697.31;4971262;28;45364;-66
2021/11/26 04:13:19;;;;;;;;;10.25;9.25;;;;;21.13;36.20;100697.31;4970295;28;45475;-66
2021/11/26 04:15:45;;;;;;;;;6.50;6.50;;;;;21.13;36.02;100694.66;4972313;28;45382;-66
2021/11/26 04:18:11;;;;;;;;;8.00;7.25;;;;;21.03;36.13;100673.72;4969589;28;47746;-67
2021/11/26 04:20:38;;;;;;;;;9.25;9.25;;;;;21.10;35.88;100676.50;4970729;28;45413;-66
2021/11/26 04:23:04;;;;;;;;;2.00;1.00;;;;;21.14;36.28;100680.41;4970189;28;46221;-66
2021/11/26 04:25:31;;;;;;;;;8.00;7.75;;;;;21.14;36.17;100673.31;4970954;28;45352;-66
2021/11/26 04:27:57;;;;;;;;;10.50;7.25;;;;;21.14;36.08;100672.47;4972332;28;45328;-66
2021/11/26 04:30:26;;;;;;;;;5.25;5.25;;;;;21.14;36.11;100670.66;4969925;28;45383;-66
2021/11/26 04:32:51;;;;;;;;;7.25;7.25;;;;;21.09;36.13;100659.78;4970693;28;45306;-66
2021/11/26 04:35:17;;;;;;;;;10.75;8.25;;;;;21.12;36.34;100658.63;4970681;28;45287;-66
2021/11/26 04:37:43;;;;;;;;;12.00;8.00;;;;;21.14;36.17;100651.31;4970964;28;45303;-66
2021/11/26 04:40:11;;;;;;;;;8.00;7.00;;;;;21.15;36.17;100661.75;4970906;28;45318;-67
2021/11/26 04:42:37;;;;;;;;;8.75;7.50;;;;;21.16;36.01;100654.59;4970343;28;46305;-67
2021/11/26 04:45:05;;;;;;;;;9.00;8.25;;;;;21.15;35.97;100655.63;4970501;28;45469;-66
2021/11/26 04:47:30;;;;;;;;;7.50;6.00;;;;;21.15;36.14;100651.16;4969119;28;45651;-66
2021/11/26 04:49:55;;;;;;;;;5.25;5.25;;;;;21.15;35.78;100650.31;4970474;28;45671;-66
2021/11/26 04:52:21;;;;;;;;;8.25;7.75;;;;;21.14;35.96;100636.28;4969562;28;45946;-66
2021/11/26 04:54:46;;;;;;;;;7.50;7.50;;;;;21.14;35.87;100630.97;4972621;28;45364;-66
2021/11/26 04:57:11;;;;;;;;;7.50;7.50;;;;;21.14;36.02;100627.50;4970340;28;45419;-66
2021/11/26 04:59:37;;;;;;;;;9.50;8.25;;;;;20.75;35.99;100556.06;4970394;28;45454;-66
2021/11/26 05:02:03;;;;;;;;;7.25;7.00;;;;;21.14;35.95;100623.03;4970121;28;46022;-66
2021/11/26 05:04:28;;;;;;;;;8.75;7.00;;;;;21.13;35.96;100613.44;4970566;28;45324;-66
2021/11/26 05:06:53;;;;;;;;;10.00;7.50;;;;;21.02;35.96;100588.28;4972645;28;45379;-66
2021/11/26 05:09:19;;;;;;;;;10.25;9.00;;;;;21.10;36.19;100603.25;4970209;28;45308;-66
2021/11/26 05:11:45;;;;;;;;;8.75;6.50;;;;;21.14;36.00;100603.69;4971699;28;45962;-66
2021/11/26 05:14:16;;;;;;;;;8.50;6.50;;;;;21.13;36.10;100594.13;4973359;28;45632;-66
2021/11/26 05:16:43;;;;;;;;;8.50;7.00;;;;;21.13;36.18;100583.56;4974557;28;45231;-66
2021/11/26 05:19:08;;;;;;;;;7.00;7.00;;;;;21.13;36.06;100584.34;4973819;28;45359;-66
2021/11/26 05:21:33;;;;;;;;;8.25;7.00;;;;;21.13;35.89;100572.97;4974621;28;46252;-66
2021/11/26 05:23:58;;;;;;;;;5.75;5.75;;;;;21.13;35.87;100575.63;4973111;28;45474;-66
2021/11/26 05:26:24;;;;;;;;;5.50;5.00;;;;;21.09;36.05;100567.22;4971335;28;45516;-66
2021/11/26 05:28:51;;;;;;;;;9.00;7.00;;;;;21.06;35.89;100559.63;4972831;28;45315;-66
2021/11/26 05:31:17;;;;;;;;;5.00;4.00;;;;;21.10;36.16;100568.03;4972732;28;45728;-66
2021/11/26 05:33:42;;;;;;;;;9.00;6.00;;;;;21.11;36.04;100551.13;4973879;28;45507;-66
2021/11/26 05:36:08;;;;;;;;;7.50;7.00;;;;;21.10;35.99;100547.69;4973230;28;45468;-67
2021/11/26 05:38:33;;;;;;;;;6.00;6.00;;;;;21.10;35.83;100542.41;4973066;28;45379;-66
2021/11/26 05:40:58;;;;;;;;;7.75;7.75;;;;;21.10;35.99;100537.13;4972771;28;46058;-67
2021/11/26 05:43:24;;;;;;;;;7.75;7.75;;;;;20.99;36.16;100525.13;4973171;28;45363;-66
2021/11/26 05:45:50;;;;;;;;;7.75;6.75;;;;;21.09;36.02;100527.53;4975376;28;45361;-66
2021/11/26 05:48:16;;;;;;;;;8.50;8.00;;;;;21.09;36.26;100521.41;4972896;28;45776;-66
2021/11/26 05:50:41;;;;;;;;;7.00;7.00;;;;;21.11;36.19;100519.41;4972627;28;45514;-66
2021/11/26 05:53:07;;;;;;;;;5.75;5.75;;;;;21.08;35.90;100504.72;4972966;28;45573;-66
2021/11/26 05:55:33;;;;;;;;;10.00;7.25;;;;;21.00;35.88;100479.13;4972760;28;45394;-66
2021/11/26 05:58:00;;;;;;;;;4.50;4.50;;;;;21.07;35.88;100487.22;4974320;28;45479;-66
2021/11/26 06:00:28;;;;;;;;;9.00;7.00;;;;;21.10;35.92;100488.69;4972142;28;46172;-66
2021/11/26 06:02:53;;;;;;;;;7.25;7.25;;;;;21.10;35.89;100492.16;4972871;28;45438;-66
2021/11/26 06:05:19;;;;;;;;;7.50;7.50;;;;;21.10;35.80;100483.38;4971171;28;45800;-66
2021/11/26 06:07:44;;;;;;;;;8.75;7.25;;;;;21.11;35.98;100477.06;4972849;28;45396;-66
2021/11/26 06:10:11;;;;;;;;;9.00;7.25;;;;;21.10;36.08;100470.97;4972716;28;46337;-66
2021/11/26 06:12:39;;;;;;;;;7.75;7.00;;;;;21.10;35.83;100465.69;4972815;28;45237;-66
2021/11/26 06:15:05;;;;;;;;;6.00;6.00;;;;;21.10;35.73;100460.41;4972650;28;45312;-66
2021/11/26 06:17:30;;;;;;;;;5.75;5.75;;;;;21.01;35.97;100443.78;4972520;28;45237;-66
2021/11/26 06:19:56;;;;;;;;;6.00;6.00;;;;;21.11;35.87;100440.88;4972532;28;45665;-66
2021/11/26 06:22:21;;;;;;;;;6.00;6.00;;;;;21.11;35.96;100435.56;4971525;28;45458;-66
2021/11/26 06:24:46;;;;;;;;;5.75;5.75;;;;;21.11;35.90;100426.81;4970179;28;45642;-66
2021/11/26 06:27:12;;;;;;;;;7.00;7.00;;;;;21.11;35.66;100424.16;4970416;28;45492;-66
2021/11/26 06:29:37;;;;;;;;;6.00;4.75;;;;;21.10;35.74;100422.53;4972292;28;45781;-66
2021/11/26 06:32:03;;;;;;;;;7.50;7.00;;;;;21.11;35.79;100414.41;4972289;28;45501;-66
2021/11/26 06:34:28;;;;;;;;;7.00;6.00;;;;;21.06;36.04;100395.63;4972819;28;45428;-66
2021/11/26 06:36:53;;;;;;;;;7.50;6.00;;;;;21.12;35.73;100407.31;4974755;28;45375;-66
2021/11/26 06:39:19;;;;;;;;;5.50;5.50;;;;;21.12;35.96;100410.78;4971799;28;45929;-66
2021/11/26 06:41:44;;;;;;;;;7.75;6.00;;;;;21.09;35.81;100400.56;4974013;27;45457;-66
2021/11/26 06:44:09;;;;;;;;;6.25;6.25;;;;;21.11;35.91;100384.47;4968231;28;45430;-66
2021/11/26 06:46:35;;;;;;;;;10.25;7.75;;;;;21.09;35.67;100378.56;4972790;28;45391;-66
2021/11/26 06:49:00;;;;;;;;;7.00;7.00;;;;;21.09;35.84;100376.75;4973739;28;45936;-66
2021/11/26 06:51:26;;;;;;;;;8.00;8.00;;;;;21.09;35.98;100368.81;4971984;28;45460;-66
2021/11/26 06:53:51;;;;;;;;;6.75;6.50;;;;;21.09;35.75;100371.47;4970696;28;45349;-66
2021/11/26 06:56:16;;;;;;;;;9.00;6.50;;;;;21.09;35.66;100358.22;4972266;28;45446;-66
2021/11/26 06:58:42;;;;;;;;;10.75;6.25;;;;;21.05;35.78;100352.47;4972171;28;45915;-66
2021/11/26 07:01:08;;;;;;;;;3.00;3.00;;;;;21.07;35.74;100347.03;4973246;28;45587;-67
2021/11/26 07:03:33;;;;;;;;;6.50;5.00;;;;;21.10;35.97;100346.66;4973971;28;45637;-66
2021/11/26 07:05:59;;;;;;;;;7.25;6.75;;;;;21.10;35.82;100351.13;4972061;28;45393;-66
2021/11/26 07:08:24;;;;;;;;;5.75;5.75;;;;;21.08;35.62;100346.00;4971601;28;46055;-66
2021/11/26 07:10:50;;;;;;;;;8.00;6.00;;;;;21.08;35.54;100331.97;4971973;28;45518;-66
2021/11/26 07:13:16;;;;;;;;;6.00;6.00;;;;;21.04;35.99;100320.94;4972535;28;45304;-66
2021/11/26 07:15:42;;;;;;;;;6.00;6.00;;;;;21.07;35.90;100328.50;4969069;28;45500;-67
2021/11/26 07:18:07;;;;;;;;;6.00;4.00;;;;;21.04;35.68;100308.53;4965708;28;46201;-68
2021/11/26 07:20:33;;;;;;;;;8.50;7.00;;;;;21.06;35.74;100309.16;4967324;28;45419;-67
2021/11/26 07:22:59;;;;;;;;;7.00;6.75;;;;;21.07;35.78;100304.69;4967265;28;45723;-67
2021/11/26 07:25:26;;;;;;;;;6.25;5.00;;;;;21.01;36.00;100294.81;4968971;28;45469;-67
2021/11/26 07:27:51;;;;;;;;;12.25;6.25;;;;;21.06;35.79;100284.53;4969446;28;47058;-67
2021/11/26 07:30:17;;;;;;;;;8.00;5.00;;;;;21.05;36.00;100289.00;4965669;28;45236;-67
2021/11/26 07:32:42;;;;;;;;;7.25;6.25;;;;;21.06;35.71;100277.44;4965496;28;45310;-67
2021/11/26 07:35:08;;;;;;;;;5.50;5.50;;;;;21.06;35.71;100271.31;4957513;28;45360;-67
2021/11/26 07:37:35;;;;;;;;;6.00;5.50;;;;;21.03;35.94;100261.09;4970312;28;45300;-67
2021/11/26 07:40:00;;;;;;;;;6.50;6.00;;;;;21.04;36.16;100263.56;4969940;28;45370;-66
2021/11/26 07:42:26;;;;;;;;;6.75;5.00;;;;;21.07;35.88;100270.31;4967910;28;45485;-67
2021/11/26 07:44:51;;;;;;;;;5.00;4.75;;;;;21.07;35.93;100262.38;4967388;28;45272;-67
2021/11/26 07:47:18;;;;;;;;;7.75;6.00;;;;;21.06;36.09;100258.91;4967162;28;46017;-67
2021/11/26 07:49:45;;;;;;;;;7.00;6.00;;;;;21.06;35.92;100248.34;4971345;27;45583;-67
2021/11/26 07:52:11;;;;;;;;;8.75;7.25;;;;;21.09;36.01;100256.88;4969779;28;50361;-68
2021/11/26 07:54:37;;;;;;;;;5.00;4.00;;;;;20.99;36.19;100238.66;4970137;28;45550;-67
2021/11/26 07:57:02;;;;;;;;;5.25;5.25;;;;;20.99;36.18;100230.72;4970678;28;46227;-68
2021/11/26 07:59:28;;;;;;;;;5.75;5.75;;;;;21.10;36.18;100248.78;4970931;28;45296;-67
2021/11/26 08:01:54;;;;;;;;;6.25;6.00;;;;;21.11;36.02;100246.94;4968207;28;45769;-67
2021/11/26 08:04:20;;;;;;;;;8.25;6.75;;;;;21.10;36.26;100240.03;4968970;28;45502;-66
2021/11/26 08:06:46;;;;;;;;;5.75;5.00;;;;;21.02;36.04;100227.75;4972020;28;46045;-66
2021/11/26 08:09:14;;;;;;;;;7.25;5.50;;;;;21.10;36.31;100235.56;4969594;28;45375;-66
2021/11/26 08:11:40;;;;;;;;;5.75;5.00;;;;;21.12;36.21;100225.59;4970288;28;45297;-67
2021/11/26 08:14:06;;;;;;;;;6.00;5.25;;;;;21.12;36.11;100217.66;4970041;28;45371;-66
2021/11/26 08:16:32;;;;;;;;;6.00;6.00;;;;;21.12;36.09;100212.38;4970711;28;47208;-67
2021/11/26 08:18:58;;;;;;;;;6.00;5.00;;;;;21.12;35.96;100211.56;4972382;28;45359;-67
2021/11/26 08:21:23;;;;;;;;;5.25;5.25;;;;;21.12;35.81;100209.72;4970879;28;45411;-66
2021/11/26 08:23:49;;;;;;;;;5.50;5.25;;;;;21.10;36.21;100195.06;4971028;28;45236;-66
2021/11/26 08:26:14;;;;;;;;;4.75;4.50;;;;;21.12;35.94;100198.31;4970475;28;46070;-67
2021/11/26 08:28:40;;;;;;;;;6.50;6.50;;;;;21.11;35.95;100188.75;4970431;28;45322;-67
2021/11/26 08:31:05;;;;;;;;;6.00;5.00;;;;;21.10;36.00;100182.66;4971644;28;45305;-67
2021/11/26 08:33:30;;;;;;;;;6.50;5.25;;;;;21.10;36.11;100177.38;4971914;28;45221;-67
2021/11/26 08:35:56;;;;;;;;;6.00;5.00;;;;;21.06;35.97;100174.28;4969752;28;46077;-67
2021/11/26 08:38:22;;;;;;;;;6.00;6.00;;;;;21.09;36.14;100167.78;4970553;28;45285;-66
2021/11/26 08:40:47;;;;;;;;;7.50;5.00;;;;;21.09;35.99;100157.19;4970561;28;45484;-67
2021/11/26 08:43:13;;;;;;;;;5.75;3.50;;;;;21.09;35.98;100145.81;4970749;28;45366;-67
2021/11/26 08:45:39;;;;;;;;;5.25;5.25;;;;;21.09;36.13;100143.16;4973001;28;46224;-67
2021/11/26 08:48:06;;;;;;;;;5.25;4.50;;;;;20.93;36.23;100114.13;4971996;28;45455;-67
2021/11/26 08:50:34;;;;;;;;;9.50;6.00;;;;;21.07;35.74;100127.50;4973058;28;45559;-67
2021/11/26 08:53:01;;;;;;;;;5.00;5.00;;;;;21.06;35.90;100125.84;4973646;28;45788;-67
2021/11/26 08:55:27;;;;;;;;;4.50;3.50;;;;;21.05;35.84;100118.94;4973520;28;46246;-66
2021/11/26 08:57:54;;;;;;;;;8.00;6.25;;;;;21.09;35.83;100108.78;4959511;28;45648;-66
2021/11/26 09:00:27;;;;;;;;;6.00;5.00;;;;;21.03;36.31;100102.41;4969113;28;45517;-67
2021/11/26 09:02:53;;;;;;;;;5.00;5.00;;;;;21.05;36.12;100095.91;4968986;28;45961;-67
2021/11/26 09:05:19;;;;;;;;;4.50;4.50;;;;;20.93;36.22;100069.16;4967105;28;45421;-66
2021/11/26 09:07:46;;;;;;;;;5.75;4.25;;;;;21.04;36.23;100069.69;4970684;28;45380;-67
2021/11/26 09:10:12;;;;;;;;;2.00;1.50;;;;;21.07;35.80;100074.59;4971943;28;45286;-67
2021/11/26 09:12:38;;;;;;;;;6.00;5.75;;;;;21.06;35.97;100067.66;4971004;28;45362;-67
2021/11/26 09:15:04;;;;;;;;;4.00;4.00;;;;;21.06;35.84;100046.50;4968829;28;45759;-67
2021/11/26 09:17:29;;;;;;;;;7.00;5.00;;;;;21.05;36.10;100044.88;4968963;28;45348;-67
2021/11/26 09:19:55;;;;;;;;;8.00;5.50;;;;;21.06;36.02;100033.28;4967629;28;45414;-67
2021/11/26 09:22:20;;;;;;;;;5.00;5.00;;;;;21.07;36.08;100016.41;4973220;28;45629;-66
2021/11/26 09:24:46;;;;;;;;;5.75;5.50;;;;;21.06;36.09;100009.47;4970819;28;46305;-67
2021/11/26 09:27:11;;;;;;;;;5.00;5.00;;;;;21.06;36.04;100005.00;4967429;28;45422;-67
2021/11/26 09:29:36;;;;;;;;;5.50;5.50;;;;;21.06;36.12;99999.72;4963070;28;45808;-66
2021/11/26 09:32:02;;;;;;;;;5.00;5.00;;;;;20.97;36.12;99984.97;4958281;28;45521;-67
2021/11/26 09:34:28;;;;;;;;;6.00;4.00;;;;;21.08;35.93;99993.41;4974739;27;45324;-67
2021/11/26 09:36:55;;;;;;;;;7.25;4.75;;;;;21.07;36.08;99992.59;4971210;28;45434;-67
2021/11/26 09:39:21;;;;;;;;;3.75;3.75;;;;;21.10;36.10;99986.09;4973295;28;45462;-67
2021/11/26 09:41:48;;;;;;;;;3.75;3.75;;;;;21.09;35.91;99969.41;4973005;28;45414;-66
2021/11/26 09:44:14;;;;;;;;;5.00;4.00;;;;;21.09;35.84;99977.34;4970742;28;46083;-66
2021/11/26 09:46:40;;;;;;;;;5.75;4.75;;;;;21.11;36.02;99971.84;4971579;28;45502;-66
2021/11/26 09:49:06;;;;;;;;;5.50;5.25;;;;;21.06;35.96;99960.03;4973996;28;45289;-67
2021/11/26 09:51:33;;;;;;;;;4.50;4.50;;;;;21.11;36.03;99963.91;4974230;28;45433;-67
2021/11/26 09:53:59;;;;;;;;;5.25;4.75;;;;;21.12;36.17;99957.63;4972770;28;47025;-67
2021/11/26 09:56:25;;;;;;;;;2.25;2.25;;;;;21.04;35.85;99945.38;4972442;28;45541;-66
2021/11/26 09:58:50;;;;;;;;;4.00;4.00;;;;;21.02;35.81;99934.19;4971482;28;45397;-66
2021/11/26 10:01:15;;;;;;;;;3.50;3.50;;;;;21.12;35.54;99944.41;4972627;28;45424;-67
2021/11/26 10:03:49;;;;;;;;;3.00;3.00;;;;;21.12;35.73;99936.47;4974864;28;46995;-66
2021/11/26 10:06:40;;;;;;;;;3.25;3.25;;;;;21.11;35.74;99933.00;4973363;28;45558;-67
2021/11/26 10:09:15;;;;;;;;;4.25;3.50;;;;;21.10;36.13;99918.16;4971132;28;45325;-67
2021/11/26 10:11:52;;;;;;;;;5.00;3.00;;;;;21.09;36.09;99913.03;4972543;28;45439;-67
2021/11/26 10:14:19;;;;;;;;;4.75;3.00;;;;;21.11;36.15;99911.00;4972295;28;46394;-67
2021/11/26 10:16:48;;;;;;;;;4.25;4.25;;;;;21.11;35.72;99898.59;4972097;28;45486;-67
2021/11/26 10:19:15;;;;;;;;;4.50;4.00;;;;;21.10;35.91;99897.00;4972721;28;45307;-67
2021/11/26 10:21:40;;;;;;;;;5.00;4.00;;;;;21.10;35.76;99875.00;4974370;28;45476;-66
2021/11/26 10:24:14;;;;;;;;;4.75;4.75;;;;;21.10;35.96;99867.91;4972286;28;45918;-67
2021/11/26 10:26:39;;;;;;;;;5.00;3.25;;;;;21.10;36.05;99864.44;4972724;28;45367;-66
2021/11/26 10:29:05;;;;;;;;;5.00;5.00;;;;;21.10;35.90;99861.78;4972383;28;45352;-67
2021/11/26 10:31:32;;;;;;;;;3.00;3.00;;;;;21.08;36.22;99848.75;4972275;28;45423;-67
2021/11/26 10:34:00;;;;;;;;;4.25;3.25;;;;;21.10;36.03;99845.91;4973773;28;46121;-66
2021/11/26 10:36:26;;;;;;;;;6.75;3.00;;;;;21.09;35.96;99831.06;4974123;28;45400;-67
2021/11/26 10:38:52;;;;;;;;;3.75;3.75;;;;;21.09;35.96;99825.75;4970818;28;45419;-66
2021/11/26 10:41:33;;;;;;;;;4.00;4.00;;;;;21.08;36.08;99806.44;4973335;28;45502;-66
2021/11/26 10:44:09;;;;;;;;;4.50;3.00;;;;;21.09;35.80;99812.53;4970720;28;46067;-67
2021/11/26 11:00:03;;;;;;;;;2.50;2.50;;;;;21.09;35.90;99757.81;4965440;28;45278;-67
2021/11/26 11:02:39;;;;;;;;;3.00;3.00;;;;;21.08;35.81;99748.25;4959263;28;45428;-67
2021/11/26 11:05:07;;;;;;;;;3.00;2.75;;;;;21.07;35.92;99736.06;4967598;28;47255;-67
2021/11/26 11:07:44;;;;;;;;;6.00;4.75;;;;;21.06;35.68;99735.22;4970951;28;46161;-67
2021/11/26 11:10:29;;;;;;;;;3.00;2.50;;;;;21.09;35.76;99727.91;4957002;28;45355;-67
2021/11/26 11:13:18;;;;;;;;;3.25;3.25;;;;;21.07;36.12;99722.84;4971755;28;45571;-67
2021/11/26 11:15:45;;;;;;;;;3.50;3.50;;;;;21.08;35.83;99707.78;4958266;28;46103;-66
2021/11/26 11:18:12;;;;;;;;;3.50;3.50;;;;;21.07;35.69;99699.03;4967024;28;45584;-67
2021/11/26 11:20:39;;;;;;;;;3.25;3.25;;;;;21.07;35.91;99685.81;4967431;28;45543;-67
2021/11/26 11:23:06;;;;;;;;;2.50;2.50;;;;;21.08;36.06;99678.69;4966332;28;45495;-67
2021/11/26 11:25:32;;;;;;;;;2.25;2.25;;;;;21.09;35.69;99678.47;4971101;28;46220;-67
2021/11/26 11:28:08;;;;;;;;;2.50;2.50;;;;;21.09;35.85;99669.72;4969624;28;45317;-67
2021/11/26 11:30:34;;;;;;;;;4.75;4.00;;;;;21.10;35.79;99658.16;4969389;28;45301;-66
2021/11/26 11:33:00;;;;;;;;;3.25;3.25;;;;;21.09;35.73;99651.22;4967484;28;45657;-67
2021/11/26 11:35:29;;;;;;;;;2.25;2.25;;;;;21.09;35.60;99636.16;4967310;28;45250;-69
2021/11/26 11:37:57;;;;;;;;;3.00;3.00;;;;;21.11;35.96;99622.72;4969441;28;45616;-68